Catàleg de serveis del Meteocat
Campanya meteocatpedra

Dades de l'estació automàtica Alfarràs

?
?
Resum diari 22:30 TU
Dades diàries de l'estació meteorològica
Temperatura mitjana 14.7 °C
Temperatura màxima 18.5 °C 14:21 TU
Temperatura mínima 9.3 °C 5:47 TU
Humitat relativa mitjana 59%
Precipitació acumulada 0.1 mm
Ratxa màxima del vent (2 m) 33.1 km/h - 146º 14:46 TU

El tram horari està expressat en Temps Universal (TU). Cal sumar una hora en horari d'hivern i dues en horari d'estiu per passar a l'hora oficial.

Alfarràs

Metadades estació meteorol´gica
Municipi Alfarràs
Comarca Segrià
Altitud 268 m
Data alta 17.09.1997
Estat actual Operativa
Dades de període
Període
TU
TM
°C
TX
°C
TN
°C
HRM
%
PPT
mm
VVM (2 m)
km/h
DVM (2 m)
graus
VVX (2 m)
km/h
00:00 - 00:30 10.9 11.3 10.4 79 0.0 1.4 155 5.8
00:30 - 01:00 10.9 11.3 10.6 81 0.0 3.6 132 9.0
01:00 - 01:30 10.9 11.2 10.6 79 0.0 4.7 140 10.1
01:30 - 02:00 10.8 11.4 10.5 76 0.0 4.7 123 10.8
02:00 - 02:30 11.4 11.6 11.2 76 0.0 4.3 107 16.9
02:30 - 03:00 11.5 11.7 11.4 79 0.0 5.8 90 15.1
03:00 - 03:30 11.6 11.6 11.4 79 0.0 5.8 92 15.5
03:30 - 04:00 11.6 11.7 11.6 79 0.0 5.8 78 15.5
04:00 - 04:30 11.6 11.7 11.6 79 0.0 4.7 97 13.3
04:30 - 05:00 11.3 11.7 10.9 80 0.0 5.0 140 9.7
05:00 - 05:30 10.3 10.8 9.7 85 0.0 4.7 178 9.0
05:30 - 06:00 9.5 9.7 9.3 90 0.0 2.5 156 6.1
06:00 - 06:30 10.0 10.3 9.7 89 0.0 2.5 186 5.0
06:30 - 07:00 10.6 11.0 10.3 86 0.0 4.7 178 10.1
07:00 - 07:30 11.9 13.4 11.0 80 0.0 6.1 158 13.7
07:30 - 08:00 14.7 15.7 13.5 65 0.0 7.9 113 17.3
08:00 - 08:30 15.3 16.2 14.0 53 0.1 7.9 105 19.8
08:30 - 09:00 13.7 14.2 13.5 65 0.0 6.1 92 16.6
09:00 - 09:30 14.9 15.4 14.3 59 0.0 8.6 92 22.3
09:30 - 10:00 15.6 15.7 15.5 53 0.0 9.7 98 23.8
10:00 - 10:30 16.0 16.2 15.7 54 0.0 10.1 91 23.4
10:30 - 11:00 16.7 17.0 16.2 50 0.0 9.0 92 23.0
11:00 - 11:30 16.9 17.1 16.8 55 0.0 10.4 119 21.2
11:30 - 12:00 17.2 17.4 17.1 55 0.0 11.2 126 22.0
12:00 - 12:30 17.2 17.4 17.1 56 0.0 9.4 141 18.7
12:30 - 13:00 17.7 18.1 17.3 50 0.0 11.9 123 28.1
13:00 - 13:30 18.1 18.2 18.0 45 0.0 13.0 115 27.7
13:30 - 14:00 18.0 18.2 18.0 46 0.0 13.0 127 26.3
14:00 - 14:30 18.4 18.5 18.2 45 0.0 13.7 111 29.2
14:30 - 15:00 18.4 18.5 18.3 43 0.0 13.7 110 33.1
15:00 - 15:30 18.2 18.3 18.2 46 0.0 12.2 115 24.5
15:30 - 16:00 18.1 18.4 17.7 48 0.0 10.4 120 20.5
16:00 - 16:30 17.5 17.6 17.3 51 0.0 9.0 122 21.2
16:30 - 17:00 17.1 17.3 17.0 53 0.0 7.9 134 18.7
17:00 - 17:30 16.9 17.3 16.8 53 0.0 9.7 129 22.0
17:30 - 18:00 17.2 17.3 17.1 48 0.0 12.2 119 25.6
18:00 - 18:30 17.0 17.1 16.8 45 0.0 13.7 114 30.2
18:30 - 19:00 16.6 16.8 16.4 42 0.0 13.7 124 25.6
19:00 - 19:30 16.2 16.3 16.2 40 0.0 14.0 120 29.5
19:30 - 20:00 16.0 16.3 15.9 39 0.0 12.6 119 27.7
20:00 - 20:30 15.9 15.9 15.7 37 0.0 13.7 118 28.4
20:30 - 21:00 15.8 15.8 15.7 37 0.0 14.8 112 28.4
21:00 - 21:30 15.4 15.7 15.2 41 0.0 12.6 119 28.1
21:30 - 22:00 15.0 15.1 14.9 44 0.0 9.7 116 20.9
22:00 - 22:30 14.8 14.9 14.7 45 0.0 8.3 122 18.0
22:30 - 23:00 14.7 14.8 14.6 46 0.0 8.6 126 17.6

Les dades en taronja només han passat un control de qualitat automàtic. Resta pendent la seva validació definitiva.